createdAt,value
2023-02-11T00:00:17.872Z,236.67
2023-02-11T00:00:49.947Z,235.33
2023-02-11T00:01:29.431Z,233.33
2023-02-11T00:02:01.350Z,233.33
2023-02-11T00:02:33.591Z,234.67
2023-02-11T00:03:05.528Z,235.33
2023-02-11T00:03:37.537Z,246.67
2023-02-11T00:04:09.377Z,246.67
2023-02-11T00:04:41.293Z,244.67
2023-02-11T00:05:13.267Z,243.33
2023-02-11T00:05:45.105Z,243.00
2023-02-11T00:06:16.989Z,246.33
2023-02-11T00:06:48.835Z,269.33
2023-02-11T00:07:20.668Z,289.00
2023-02-11T00:07:52.448Z,288.00
2023-02-11T00:08:24.260Z,284.33
2023-02-11T00:08:56.247Z,291.33
2023-02-11T00:09:30.317Z,297.00
2023-02-11T00:10:04.365Z,308.33
2023-02-11T00:10:36.201Z,302.33
2023-02-11T00:11:08.145Z,279.33
2023-02-11T00:11:39.960Z,273.33
2023-02-11T00:12:11.769Z,272.33
2023-02-11T00:12:43.609Z,274.00
2023-02-11T00:13:15.407Z,273.00
2023-02-11T00:13:47.285Z,271.33
2023-02-11T00:14:19.084Z,267.67
2023-02-11T00:14:50.931Z,261.00
2023-02-11T00:15:22.905Z,257.67
2023-02-11T00:15:54.905Z,255.33
2023-02-11T00:16:27.025Z,254.67
2023-02-11T00:16:58.872Z,254.67
2023-02-11T00:17:30.697Z,255.00
2023-02-11T00:18:02.584Z,255.67
2023-02-11T00:18:34.445Z,270.33
2023-02-11T00:19:06.778Z,285.00
2023-02-11T00:19:38.575Z,285.00
2023-02-11T00:20:10.665Z,283.33
2023-02-11T00:20:42.637Z,289.33
2023-02-11T00:21:19.122Z,303.33
2023-02-11T00:21:50.908Z,324.67
2023-02-11T00:22:22.810Z,331.67
2023-02-11T00:22:54.631Z,342.00
2023-02-11T00:23:26.420Z,349.67
2023-02-11T00:23:59.882Z,357.33
2023-02-11T00:24:31.907Z,358.33
2023-02-11T00:25:03.804Z,351.67
2023-02-11T00:25:43.282Z,326.67
2023-02-11T00:26:25.780Z,315.33
2023-02-11T00:26:57.710Z,307.67
2023-02-11T00:27:29.507Z,302.33
2023-02-11T00:28:01.365Z,300.33
2023-02-11T00:28:33.240Z,305.33
2023-02-11T00:29:05.606Z,309.33
2023-02-11T00:29:38.204Z,306.33
2023-02-11T00:30:11.087Z,299.33
2023-02-11T00:30:43.032Z,284.67
2023-02-11T00:31:15.320Z,264.67
2023-02-11T00:31:47.378Z,253.00
2023-02-11T00:32:19.309Z,249.00
2023-02-11T00:32:51.099Z,250.67
2023-02-11T00:33:22.974Z,244.33
2023-02-11T00:33:54.892Z,237.33
2023-02-11T00:34:26.750Z,229.33
2023-02-11T00:34:58.697Z,229.00
2023-02-11T00:35:30.475Z,232.67
2023-02-11T00:36:13.826Z,229.67
2023-02-11T00:36:45.665Z,231.67
2023-02-11T00:37:17.458Z,238.67
2023-02-11T00:37:49.301Z,243.33
2023-02-11T00:38:21.082Z,247.67
2023-02-11T00:38:53.824Z,250.33
2023-02-11T00:39:25.599Z,253.67
2023-02-11T00:39:57.354Z,271.33
2023-02-11T00:40:29.129Z,285.67
2023-02-11T00:41:00.995Z,284.33
2023-02-11T00:41:32.870Z,281.00
2023-02-11T00:42:04.836Z,279.33
2023-02-11T00:42:37.460Z,277.33
2023-02-11T00:43:09.330Z,270.33
2023-02-11T00:43:41.929Z,263.33
2023-02-11T00:44:13.753Z,261.33
2023-02-11T00:44:45.663Z,259.67
2023-02-11T00:45:17.657Z,259.00
2023-02-11T00:45:49.805Z,258.33
2023-02-11T00:46:21.979Z,256.33
2023-02-11T00:46:53.907Z,255.67
2023-02-11T00:47:25.788Z,254.00
2023-02-11T00:47:57.710Z,251.67
2023-02-11T00:48:29.574Z,248.00
2023-02-11T00:49:01.447Z,244.00
2023-02-11T00:49:33.361Z,242.33
2023-02-11T00:50:05.625Z,242.67
2023-02-11T00:50:37.441Z,243.67
2023-02-11T00:51:09.311Z,245.33
2023-02-11T00:51:41.190Z,246.33
2023-02-11T00:52:13.036Z,247.00
2023-02-11T00:52:44.911Z,247.33
2023-02-11T00:53:16.716Z,247.33
2023-02-11T00:53:48.576Z,242.67
2023-02-11T00:54:20.448Z,238.33
2023-02-11T00:54:52.238Z,234.67
2023-02-11T00:55:24.029Z,232.67
2023-02-11T00:55:55.911Z,232.33
2023-02-11T00:56:27.712Z,227.33
2023-02-11T00:56:59.509Z,226.33
2023-02-11T00:57:31.350Z,224.00
2023-02-11T00:58:03.213Z,219.00
2023-02-11T00:58:35.353Z,207.67
2023-02-11T00:59:07.212Z,207.00
2023-02-11T00:59:39.091Z,199.67
2023-02-11T01:00:12.114Z,194.67
2023-02-11T01:00:43.971Z,193.33
2023-02-11T01:01:15.881Z,191.33
2023-02-11T01:01:47.779Z,184.33
2023-02-11T01:02:19.697Z,188.00
2023-02-11T01:02:51.484Z,187.33
2023-02-11T01:03:23.348Z,186.00
2023-02-11T01:03:55.134Z,184.67
2023-02-11T01:04:26.992Z,185.00
2023-02-11T01:05:00.208Z,183.00
2023-02-11T01:05:32.247Z,182.67
2023-02-11T01:06:04.889Z,180.00
2023-02-11T01:06:36.711Z,180.00
2023-02-11T01:07:08.657Z,178.00
2023-02-11T01:07:40.423Z,179.67
2023-02-11T01:08:12.360Z,184.00
2023-02-11T01:08:44.163Z,183.67
2023-02-11T01:09:15.961Z,176.67
2023-02-11T01:09:47.819Z,172.67
2023-02-11T01:10:19.704Z,174.67
2023-02-11T01:11:08.672Z,171.00
2023-02-11T01:11:40.522Z,167.33
2023-02-11T01:12:12.307Z,168.00
2023-02-11T01:12:44.149Z,171.00
2023-02-11T01:13:15.969Z,168.00
2023-02-11T01:13:48.363Z,162.33
2023-02-11T01:14:20.201Z,168.67
2023-02-11T01:14:52.147Z,169.33
2023-02-11T01:15:24.076Z,170.00
2023-02-11T01:15:56.088Z,172.33
2023-02-11T01:16:28.003Z,172.67
2023-02-11T01:16:59.841Z,173.67
2023-02-11T01:17:31.669Z,177.67
2023-02-11T01:18:05.180Z,190.00
2023-02-11T01:18:37.141Z,195.67
2023-02-11T01:19:08.954Z,198.00
2023-02-11T01:19:40.813Z,201.67
2023-02-11T01:20:16.740Z,208.00
2023-02-11T01:20:48.546Z,212.67
2023-02-11T01:21:20.461Z,217.33
2023-02-11T01:21:52.260Z,217.67
2023-02-11T01:22:24.124Z,212.00
2023-02-11T01:22:56.014Z,207.33
2023-02-11T01:23:27.842Z,194.67
2023-02-11T01:23:59.676Z,185.00
2023-02-11T01:24:31.480Z,184.00
2023-02-11T01:25:03.671Z,181.33
2023-02-11T01:25:35.510Z,176.00
2023-02-11T01:26:07.374Z,171.00
2023-02-11T01:26:39.275Z,169.67
2023-02-11T01:27:11.075Z,166.33
2023-02-11T01:27:42.954Z,162.33
2023-02-11T01:28:25.074Z,153.67
2023-02-11T01:28:56.920Z,160.67
2023-02-11T01:29:28.730Z,164.33
2023-02-11T01:30:00.544Z,168.00
2023-02-11T01:30:32.397Z,181.33
2023-02-11T01:31:04.541Z,212.67
2023-02-11T01:31:36.543Z,221.33
2023-02-11T01:32:08.439Z,228.33
2023-02-11T01:32:40.402Z,237.67
2023-02-11T01:33:12.236Z,248.33
2023-02-11T01:33:44.086Z,258.67
2023-02-11T01:34:16.170Z,262.67
2023-02-11T01:34:47.936Z,259.67
2023-02-11T01:35:20.846Z,235.00
2023-02-11T01:35:53.002Z,198.33
2023-02-11T01:36:25.191Z,164.67
2023-02-11T01:36:58.749Z,173.67
2023-02-11T01:37:32.610Z,189.00
2023-02-11T01:38:04.441Z,206.33
2023-02-11T01:38:36.331Z,212.67
2023-02-11T01:39:11.396Z,213.33
2023-02-11T01:39:43.226Z,213.00
2023-02-11T01:40:16.560Z,215.67
2023-02-11T01:41:01.819Z,229.33
2023-02-11T01:41:33.746Z,246.33
2023-02-11T01:42:05.876Z,252.67
2023-02-11T01:42:37.796Z,254.00
2023-02-11T01:43:10.859Z,275.00
2023-02-11T01:43:47.704Z,301.00
2023-02-11T01:44:23.101Z,311.00
2023-02-11T01:44:55.938Z,308.00
2023-02-11T01:45:54.071Z,304.00
2023-02-11T01:46:38.315Z,314.00
2023-02-11T01:47:10.334Z,324.00
2023-02-11T01:47:42.134Z,324.33
2023-02-11T01:48:16.360Z,326.00
2023-02-11T01:48:53.361Z,326.00
2023-02-11T01:49:31.094Z,335.00
2023-02-11T01:50:04.078Z,333.33
2023-02-11T01:50:36.135Z,338.33
2023-02-11T01:51:21.907Z,340.67
2023-02-11T01:52:04.631Z,347.67
2023-02-11T01:52:37.647Z,351.00
2023-02-11T01:53:27.981Z,351.67
2023-02-11T01:54:35.355Z,369.00
2023-02-11T01:55:29.140Z,350.33
2023-02-11T01:56:19.276Z,338.67
2023-02-11T01:57:10.354Z,335.67
2023-02-11T01:57:43.680Z,333.67
2023-02-11T01:58:15.478Z,336.00
2023-02-11T01:58:47.267Z,337.33
2023-02-11T01:59:22.796Z,337.67
2023-02-11T02:00:12.354Z,335.33
2023-02-11T02:00:44.162Z,333.00
2023-02-11T02:01:17.663Z,332.00
2023-02-11T02:01:53.504Z,334.33
2023-02-11T02:02:43.204Z,339.67
2023-02-11T02:03:20.215Z,339.33
2023-02-11T02:03:52.678Z,337.33
2023-02-11T02:04:27.524Z,337.00
2023-02-11T02:05:03.759Z,336.00
2023-02-11T02:05:49.584Z,335.00
2023-02-11T02:06:33.851Z,334.00
2023-02-11T02:07:14.503Z,333.00
2023-02-11T02:08:12.993Z,331.33
2023-02-11T02:08:50.319Z,330.00
2023-02-11T02:09:26.922Z,329.33
2023-02-11T02:10:01.248Z,329.00
2023-02-11T02:10:33.133Z,328.00
2023-02-11T02:11:05.012Z,326.67
2023-02-11T02:11:36.813Z,325.33
2023-02-11T02:12:08.652Z,324.00
2023-02-11T02:12:40.437Z,322.33
2023-02-11T02:13:12.464Z,321.33
2023-02-11T02:13:44.331Z,321.00
2023-02-11T02:14:16.137Z,321.00
2023-02-11T02:14:47.980Z,321.00
2023-02-11T02:15:25.396Z,321.00
2023-02-11T02:16:07.881Z,320.00
2023-02-11T02:16:41.462Z,319.67
2023-02-11T02:17:34.765Z,318.33
2023-02-11T02:18:49.047Z,313.67
2023-02-11T02:19:51.361Z,301.33
2023-02-11T02:21:08.284Z,304.33
2023-02-11T02:21:45.883Z,303.00
2023-02-11T02:22:25.018Z,289.33
2023-02-11T02:24:20.325Z,294.33
2023-02-11T02:25:06.890Z,292.67
2023-02-11T02:26:10.843Z,275.33
2023-02-11T02:26:54.613Z,264.33
2023-02-11T02:27:40.634Z,283.67
2023-02-11T02:28:45.050Z,286.00
2023-02-11T02:29:22.826Z,287.33
2023-02-11T02:30:00.108Z,287.67
2023-02-11T02:30:50.145Z,288.00
2023-02-11T02:31:52.687Z,288.00
2023-02-11T02:32:42.689Z,288.00
2023-02-11T02:33:22.152Z,287.67
2023-02-11T02:34:29.693Z,288.67
2023-02-11T02:35:19.548Z,289.00
2023-02-11T02:36:02.771Z,289.00
2023-02-11T02:37:00.223Z,285.00
2023-02-11T02:37:48.935Z,260.00
2023-02-11T02:39:53.450Z,221.00
2023-02-11T02:40:37.232Z,215.33
2023-02-11T02:41:11.341Z,208.00
2023-02-11T02:41:43.171Z,204.00
2023-02-11T02:42:14.945Z,199.33
2023-02-11T02:42:46.972Z,198.00
2023-02-11T02:43:18.809Z,204.00
2023-02-11T02:43:51.028Z,217.33
2023-02-11T02:44:22.908Z,221.33
2023-02-11T02:44:54.732Z,215.67
2023-02-11T02:45:26.523Z,210.33
2023-02-11T02:46:11.200Z,208.33
2023-02-11T02:46:43.020Z,204.67
2023-02-11T02:47:14.922Z,203.00
2023-02-11T02:47:46.696Z,200.67
2023-02-11T02:48:32.193Z,201.33
2023-02-11T02:49:04.189Z,200.00
2023-02-11T02:49:36.009Z,201.33
2023-02-11T02:50:08.203Z,203.00
2023-02-11T02:50:39.984Z,200.00
2023-02-11T02:51:15.905Z,202.33
2023-02-11T02:52:24.799Z,205.33
2023-02-11T02:53:02.476Z,204.00
2023-02-11T02:54:07.576Z,204.33
2023-02-11T02:54:53.202Z,206.67
2023-02-11T02:55:35.668Z,207.67
2023-02-11T02:56:16.005Z,208.00
2023-02-11T02:57:04.007Z,205.00
2023-02-11T02:57:47.795Z,206.00
2023-02-11T02:58:33.173Z,207.00
2023-02-11T02:59:13.935Z,206.33
2023-02-11T03:00:29.925Z,205.00
2023-02-11T03:01:30.420Z,205.33
2023-02-11T03:02:25.258Z,206.00
2023-02-11T03:03:15.478Z,204.33
2023-02-11T03:03:59.320Z,196.00
2023-02-11T03:04:53.815Z,186.33
2023-02-11T03:05:46.946Z,183.67
2023-02-11T03:06:39.517Z,185.00
2023-02-11T03:07:37.571Z,184.00
2023-02-11T03:08:32.831Z,182.67
2023-02-11T03:09:15.222Z,172.33
2023-02-11T03:10:00.838Z,164.33
2023-02-11T03:10:34.682Z,158.00
2023-02-11T03:11:06.584Z,139.67
2023-02-11T03:11:38.479Z,131.00
2023-02-11T03:12:10.334Z,128.33
2023-02-11T03:12:42.410Z,128.00
2023-02-11T03:13:17.122Z,143.00
2023-02-11T03:13:49.012Z,148.33
2023-02-11T03:14:20.845Z,152.00
2023-02-11T03:14:52.767Z,156.67
2023-02-11T03:15:26.305Z,157.67
2023-02-11T03:15:58.266Z,158.67
2023-02-11T03:16:30.158Z,158.67
2023-02-11T03:17:03.135Z,158.00
2023-02-11T03:17:36.118Z,156.33
2023-02-11T03:18:09.345Z,153.33
2023-02-11T03:18:42.725Z,149.00
2023-02-11T03:19:31.124Z,148.67
2023-02-11T03:20:04.413Z,151.00
2023-02-11T03:20:37.143Z,151.67
2023-02-11T03:21:09.058Z,150.00
2023-02-11T03:21:41.555Z,139.67
2023-02-11T03:22:33.871Z,130.33
2023-02-11T03:23:13.561Z,115.33
2023-02-11T03:23:54.136Z,105.33
2023-02-11T03:24:31.094Z,104.00
2023-02-11T03:25:03.104Z,101.67
2023-02-11T03:25:37.449Z,102.67
2023-02-11T03:26:19.808Z,102.33
2023-02-11T03:26:55.445Z,101.67
2023-02-11T03:27:47.408Z,100.00
2023-02-11T03:28:28.154Z,97.33
2023-02-11T03:29:25.849Z,93.00
2023-02-11T03:29:57.510Z,92.33
2023-02-11T03:30:44.358Z,92.33
2023-02-11T03:31:41.334Z,91.67
2023-02-11T03:32:35.902Z,84.33
2023-02-11T03:33:14.283Z,84.00
2023-02-11T03:34:08.764Z,82.67
2023-02-11T03:34:48.409Z,77.00
2023-02-11T03:35:21.913Z,78.00
2023-02-11T03:36:15.407Z,79.67
2023-02-11T03:37:15.202Z,79.00
2023-02-11T03:37:54.596Z,78.33
2023-02-11T03:38:39.937Z,80.67
2023-02-11T03:39:14.474Z,83.33
2023-02-11T03:39:57.758Z,84.00
2023-02-11T03:40:32.130Z,83.33
2023-02-11T03:41:04.806Z,83.00
2023-02-11T03:41:36.655Z,81.67
2023-02-11T03:42:08.952Z,79.67
2023-02-11T03:42:47.079Z,79.33
2023-02-11T03:43:23.214Z,79.67
2023-02-11T03:43:56.674Z,80.00
2023-02-11T03:44:30.928Z,80.00
2023-02-11T03:45:21.758Z,80.00
2023-02-11T03:45:53.979Z,80.00
2023-02-11T03:46:33.845Z,78.33
2023-02-11T03:47:06.133Z,78.67
2023-02-11T03:47:39.238Z,79.00
2023-02-11T03:48:24.485Z,79.00
2023-02-11T03:48:58.899Z,79.00
2023-02-11T03:49:30.704Z,80.00
2023-02-11T03:50:04.452Z,80.00
2023-02-11T03:50:36.334Z,80.00
2023-02-11T03:51:09.416Z,79.33
2023-02-11T03:51:41.278Z,80.00
2023-02-11T03:52:13.148Z,80.00
2023-02-11T03:52:44.898Z,80.00
2023-02-11T03:53:16.664Z,80.67
2023-02-11T03:53:48.455Z,81.00
2023-02-11T03:54:24.139Z,81.00
2023-02-11T03:54:56.652Z,81.00
2023-02-11T03:55:28.634Z,81.00
2023-02-11T03:56:01.339Z,81.00
2023-02-11T03:56:35.724Z,81.00
2023-02-11T03:57:07.681Z,80.33
2023-02-11T03:57:39.567Z,80.00
2023-02-11T03:58:11.424Z,80.00
2023-02-11T03:58:45.507Z,79.33
2023-02-11T03:59:17.413Z,78.67
2023-02-11T03:59:58.867Z,78.00
2023-02-11T04:00:39.689Z,78.00
2023-02-11T04:01:11.568Z,78.00
2023-02-11T04:01:43.402Z,78.00
2023-02-11T04:02:15.274Z,78.00
2023-02-11T04:02:47.186Z,77.00
2023-02-11T04:03:19.234Z,77.00
2023-02-11T04:03:51.090Z,77.00
2023-02-11T04:04:22.892Z,76.67
2023-02-11T04:04:54.981Z,75.33
2023-02-11T04:05:26.765Z,73.67
2023-02-11T04:05:58.547Z,72.67
2023-02-11T04:06:30.342Z,71.67
2023-02-11T04:07:02.137Z,70.33
2023-02-11T04:07:33.973Z,69.33
2023-02-11T04:08:05.960Z,68.67
2023-02-11T04:08:37.808Z,68.00
2023-02-11T04:09:10.125Z,67.33
2023-02-11T04:09:41.972Z,66.67
2023-02-11T04:10:13.812Z,65.67
2023-02-11T04:10:45.629Z,67.33
2023-02-11T04:11:17.475Z,127.33
2023-02-11T04:11:49.354Z,145.33
2023-02-11T04:12:21.267Z,140.33
2023-02-11T04:12:53.071Z,121.00
2023-02-11T04:13:24.964Z,108.33
2023-02-11T04:13:56.789Z,140.00
2023-02-11T04:14:29.176Z,224.67
2023-02-11T04:15:00.950Z,202.33
2023-02-11T04:15:32.963Z,160.67
2023-02-11T04:16:04.956Z,136.00
2023-02-11T04:16:36.874Z,130.00
2023-02-11T04:17:08.754Z,126.67
2023-02-11T04:17:40.565Z,124.00
2023-02-11T04:18:12.388Z,113.00
2023-02-11T04:18:44.193Z,96.00
2023-02-11T04:19:16.041Z,91.00
2023-02-11T04:19:47.877Z,92.33
2023-02-11T04:20:19.819Z,91.67
2023-02-11T04:20:51.653Z,88.67
2023-02-11T04:21:23.455Z,83.33
2023-02-11T04:21:55.302Z,83.00
2023-02-11T04:22:27.181Z,82.00
2023-02-11T04:22:58.988Z,80.00
2023-02-11T04:23:30.810Z,81.67
2023-02-11T04:24:02.685Z,82.33
2023-02-11T04:24:34.763Z,80.67
2023-02-11T04:25:06.946Z,79.67
2023-02-11T04:25:38.796Z,81.33
2023-02-11T04:26:10.645Z,81.33
2023-02-11T04:26:42.782Z,79.67
2023-02-11T04:27:14.644Z,80.33
2023-02-11T04:27:46.446Z,81.67
2023-02-11T04:28:18.275Z,82.67
2023-02-11T04:28:50.078Z,82.33
2023-02-11T04:29:21.995Z,82.00
2023-02-11T04:29:54.363Z,81.67
2023-02-11T04:30:26.220Z,80.00
2023-02-11T04:30:58.093Z,80.00
2023-02-11T04:31:29.953Z,79.67
2023-02-11T04:32:01.831Z,80.33
2023-02-11T04:32:33.630Z,81.00
2023-02-11T04:33:05.455Z,81.67
2023-02-11T04:33:37.228Z,83.00
2023-02-11T04:34:09.027Z,89.67
2023-02-11T04:34:40.867Z,98.67
2023-02-11T04:35:12.690Z,104.33
2023-02-11T04:35:44.479Z,110.33
2023-02-11T04:36:16.263Z,114.67
2023-02-11T04:36:48.088Z,121.67
2023-02-11T04:37:19.986Z,131.00
2023-02-11T04:37:51.798Z,135.33
2023-02-11T04:38:26.576Z,134.00
2023-02-11T04:38:58.412Z,124.67
2023-02-11T04:39:30.188Z,123.33
2023-02-11T04:40:02.052Z,124.67
2023-02-11T04:40:33.881Z,123.33
2023-02-11T04:41:05.753Z,122.67
2023-02-11T04:41:37.537Z,122.67
2023-02-11T04:42:09.311Z,121.00
2023-02-11T04:42:41.080Z,120.00
2023-02-11T04:43:12.906Z,120.00
2023-02-11T04:43:44.686Z,118.67
2023-02-11T04:44:16.667Z,118.00
2023-02-11T04:44:48.489Z,117.67
2023-02-11T04:45:20.390Z,113.33
2023-02-11T04:45:52.554Z,100.33
2023-02-11T04:46:24.707Z,87.00
2023-02-11T04:46:56.525Z,84.33
2023-02-11T04:47:28.369Z,82.67
2023-02-11T04:48:01.445Z,82.00
2023-02-11T04:48:34.920Z,83.00
2023-02-11T04:49:06.728Z,85.67
2023-02-11T04:49:38.502Z,86.00
2023-02-11T04:50:10.381Z,86.67
2023-02-11T04:50:42.217Z,85.67
2023-02-11T04:51:14.043Z,83.67
2023-02-11T04:51:48.908Z,84.67
2023-02-11T04:52:21.140Z,85.67
2023-02-11T04:52:52.954Z,86.67
2023-02-11T04:53:24.751Z,87.67
2023-02-11T04:53:56.571Z,88.00
2023-02-11T04:54:28.414Z,90.00
2023-02-11T04:55:00.851Z,93.33
2023-02-11T04:55:32.632Z,97.33
2023-02-11T04:56:04.675Z,107.33
2023-02-11T04:56:36.583Z,114.00
2023-02-11T04:57:08.584Z,113.00
2023-02-11T04:57:40.492Z,112.33
2023-02-11T04:58:12.317Z,111.33
2023-02-11T04:58:44.192Z,112.67
2023-02-11T04:59:16.048Z,117.67
2023-02-11T04:59:48.966Z,135.00
2023-02-11T05:00:21.033Z,135.00
2023-02-11T05:00:52.873Z,130.00
2023-02-11T05:01:24.777Z,124.33
2023-02-11T05:01:56.974Z,123.33
2023-02-11T05:02:28.762Z,123.67
2023-02-11T05:03:00.548Z,129.33
2023-02-11T05:03:32.360Z,147.00
2023-02-11T05:04:04.409Z,155.33
2023-02-11T05:04:36.218Z,141.00
2023-02-11T05:05:08.711Z,133.00
2023-02-11T05:05:43.293Z,131.00
2023-02-11T05:06:15.122Z,119.00
2023-02-11T05:06:46.956Z,106.00
2023-02-11T05:07:18.790Z,97.00
2023-02-11T05:07:50.636Z,93.00
2023-02-11T05:08:22.466Z,96.33
2023-02-11T05:08:54.305Z,99.00
2023-02-11T05:09:26.075Z,99.67
2023-02-11T05:09:57.876Z,101.00
2023-02-11T05:10:29.733Z,101.00
2023-02-11T05:11:02.369Z,100.00
2023-02-11T05:11:34.154Z,99.00
2023-02-11T05:12:06.166Z,100.00
2023-02-11T05:12:37.962Z,94.67
2023-02-11T05:13:09.736Z,93.67
2023-02-11T05:13:41.556Z,96.00
2023-02-11T05:14:13.343Z,96.67
2023-02-11T05:14:45.097Z,95.33
2023-02-11T05:15:17.136Z,96.33
2023-02-11T05:15:49.200Z,96.33
2023-02-11T05:16:21.339Z,93.67
2023-02-11T05:16:53.310Z,91.33
2023-02-11T05:17:25.159Z,86.00
2023-02-11T05:17:56.969Z,81.67
2023-02-11T05:18:28.783Z,81.33
2023-02-11T05:19:00.768Z,80.33
2023-02-11T05:19:32.713Z,76.67
2023-02-11T05:20:04.842Z,77.00
2023-02-11T05:20:39.031Z,72.33
2023-02-11T05:21:12.663Z,69.00
2023-02-11T05:22:00.227Z,71.00
2023-02-11T05:22:33.748Z,72.67
2023-02-11T05:23:05.585Z,74.33
2023-02-11T05:23:37.513Z,76.67
2023-02-11T05:24:09.399Z,78.67
2023-02-11T05:24:41.259Z,81.67
2023-02-11T05:25:13.102Z,83.33
2023-02-11T05:25:44.916Z,84.67
2023-02-11T05:26:16.817Z,85.33
2023-02-11T05:26:48.679Z,86.33
2023-02-11T05:27:20.520Z,87.00
2023-02-11T05:27:52.323Z,87.00
2023-02-11T05:28:24.184Z,86.33
2023-02-11T05:28:56.485Z,85.33
2023-02-11T05:29:28.595Z,84.00
2023-02-11T05:30:00.410Z,81.33
2023-02-11T05:30:32.363Z,81.00
2023-02-11T05:31:04.415Z,80.00
2023-02-11T05:31:36.210Z,80.67
2023-02-11T05:32:09.159Z,81.00
2023-02-11T05:32:41.032Z,81.00
2023-02-11T05:33:12.823Z,82.00
2023-02-11T05:33:44.651Z,82.00
2023-02-11T05:34:16.565Z,82.00
2023-02-11T05:34:48.422Z,82.00
2023-02-11T05:35:20.274Z,82.33
2023-02-11T05:35:52.355Z,83.00
2023-02-11T05:36:24.276Z,83.00
2023-02-11T05:36:56.179Z,82.67
2023-02-11T05:37:28.225Z,81.67
2023-02-11T05:38:00.059Z,80.33
2023-02-11T05:38:31.892Z,78.33
2023-02-11T05:39:03.856Z,76.67
2023-02-11T05:39:36.060Z,74.33
2023-02-11T05:40:08.173Z,70.67
2023-02-11T05:40:40.005Z,70.33
2023-02-11T05:41:12.048Z,73.00
2023-02-11T05:41:43.878Z,78.33
2023-02-11T05:42:15.706Z,81.00
2023-02-11T05:42:47.492Z,81.00
2023-02-11T05:43:19.370Z,81.00
2023-02-11T05:43:51.246Z,81.00
2023-02-11T05:44:23.154Z,81.67
2023-02-11T05:44:54.925Z,90.33
2023-02-11T05:45:26.803Z,138.00
2023-02-11T05:45:58.746Z,210.00
2023-02-11T05:46:30.626Z,229.67
2023-02-11T05:47:02.479Z,210.67
2023-02-11T05:47:34.465Z,209.67
2023-02-11T05:48:06.293Z,209.00
2023-02-11T05:48:38.110Z,164.33
2023-02-11T05:49:09.987Z,144.00
2023-02-11T05:49:41.780Z,144.00
2023-02-11T05:50:13.599Z,142.33
2023-02-11T05:50:45.626Z,138.67
2023-02-11T05:51:17.450Z,128.00
2023-02-11T05:51:49.270Z,104.00
2023-02-11T05:52:21.896Z,92.00
2023-02-11T05:52:53.673Z,88.33
2023-02-11T05:53:25.845Z,83.67
2023-02-11T05:53:57.695Z,77.67
2023-02-11T05:54:29.570Z,72.67
2023-02-11T05:55:01.674Z,70.67
2023-02-11T05:55:33.727Z,67.33
2023-02-11T05:56:05.990Z,64.00
2023-02-11T05:56:37.772Z,64.33
2023-02-11T05:57:09.627Z,65.33
2023-02-11T05:57:41.460Z,66.67
2023-02-11T05:58:13.772Z,76.00
2023-02-11T05:58:45.552Z,90.67
2023-02-11T05:59:17.317Z,151.00
2023-02-11T05:59:49.111Z,182.00
2023-02-11T06:00:20.892Z,203.67
2023-02-11T06:00:52.768Z,186.00
2023-02-11T06:01:24.652Z,154.33
2023-02-11T06:01:56.460Z,153.00
2023-02-11T06:02:28.924Z,151.67
2023-02-11T06:03:00.891Z,140.67
2023-02-11T06:03:32.841Z,137.67
2023-02-11T06:04:04.690Z,136.33
2023-02-11T06:04:36.752Z,135.00
2023-02-11T06:05:08.901Z,133.67
2023-02-11T06:05:40.742Z,133.00
2023-02-11T06:06:12.749Z,133.00
2023-02-11T06:06:44.545Z,132.33
2023-02-11T06:07:17.721Z,132.00
2023-02-11T06:07:49.568Z,131.33
2023-02-11T06:08:21.393Z,131.00
2023-02-11T06:08:53.216Z,130.33
2023-02-11T06:09:25.001Z,130.00
2023-02-11T06:09:56.822Z,149.00
2023-02-11T06:10:28.727Z,202.67
2023-02-11T06:11:00.559Z,285.33
2023-02-11T06:11:32.386Z,440.33
2023-02-11T06:12:04.422Z,440.33
2023-02-11T06:12:36.956Z,432.67
2023-02-11T06:13:08.814Z,413.33
2023-02-11T06:13:40.615Z,395.00
2023-02-11T06:14:12.470Z,343.67
2023-02-11T06:14:44.443Z,268.33
2023-02-11T06:15:16.300Z,241.00
2023-02-11T06:15:56.685Z,211.00
2023-02-11T06:16:28.576Z,182.33
2023-02-11T06:17:00.795Z,173.00
2023-02-11T06:17:33.828Z,163.33
2023-02-11T06:18:05.725Z,157.33
2023-02-11T06:18:37.609Z,156.33
2023-02-11T06:19:09.468Z,158.33
2023-02-11T06:19:41.255Z,159.33
2023-02-11T06:20:13.572Z,172.67
2023-02-11T06:20:45.386Z,166.33
2023-02-11T06:21:17.232Z,151.33
2023-02-11T06:21:49.010Z,148.33
2023-02-11T06:22:20.832Z,143.33
2023-02-11T06:22:52.642Z,145.33
2023-02-11T06:23:24.492Z,152.67
2023-02-11T06:23:56.317Z,198.00
2023-02-11T06:24:50.963Z,258.00
2023-02-11T06:25:20.005Z,305.00
2023-02-11T06:25:52.811Z,295.67
2023-02-11T06:26:24.881Z,252.00
2023-02-11T06:26:56.662Z,234.67
2023-02-11T06:27:28.477Z,263.00
2023-02-11T06:28:00.348Z,280.33
2023-02-11T06:28:32.794Z,273.00
2023-02-11T06:29:04.608Z,262.00
2023-02-11T06:29:36.421Z,267.33
2023-02-11T06:30:08.970Z,288.33
2023-02-11T06:30:40.786Z,295.67
2023-02-11T06:31:12.883Z,293.67
2023-02-11T06:31:44.821Z,300.67
2023-02-11T06:32:36.872Z,310.00
2023-02-11T06:33:09.529Z,309.33
2023-02-11T06:33:41.368Z,316.67
2023-02-11T06:34:13.181Z,322.67
2023-02-11T06:34:45.651Z,327.00
2023-02-11T06:35:17.501Z,326.33
2023-02-11T06:35:49.643Z,327.33
2023-02-11T06:36:22.143Z,340.00
2023-02-11T06:36:53.982Z,358.67
2023-02-11T06:37:25.818Z,364.00
2023-02-11T06:37:57.606Z,365.00
2023-02-11T06:38:29.423Z,369.00
2023-02-11T06:39:01.262Z,363.00
2023-02-11T06:39:33.104Z,343.00
2023-02-11T06:40:05.234Z,341.67
2023-02-11T06:40:36.995Z,347.67
2023-02-11T06:41:12.529Z,338.00
2023-02-11T06:41:44.375Z,328.67
2023-02-11T06:42:16.217Z,325.33
2023-02-11T06:42:48.468Z,314.00
2023-02-11T06:43:20.241Z,301.33
2023-02-11T06:43:52.798Z,288.33
2023-02-11T06:44:24.748Z,295.67
2023-02-11T06:44:56.577Z,296.67
2023-02-11T06:45:28.450Z,298.67
2023-02-11T06:46:00.307Z,300.00
2023-02-11T06:46:32.263Z,302.67
2023-02-11T06:47:04.166Z,304.67
2023-02-11T06:47:35.993Z,306.33
2023-02-11T06:48:08.624Z,307.00
2023-02-11T06:48:41.657Z,307.33
2023-02-11T06:49:14.954Z,308.33
2023-02-11T06:49:46.756Z,309.00
2023-02-11T06:50:18.639Z,325.00
2023-02-11T06:50:50.485Z,342.00
2023-02-11T06:51:22.355Z,347.00
2023-02-11T06:51:54.703Z,334.67
2023-02-11T06:52:26.668Z,331.00
2023-02-11T06:53:00.039Z,328.67
2023-02-11T06:53:38.798Z,328.00
2023-02-11T06:54:11.639Z,326.00
2023-02-11T06:54:43.508Z,323.00
2023-02-11T06:55:15.301Z,320.00
2023-02-11T06:55:47.114Z,317.33
2023-02-11T06:56:20.321Z,316.67
2023-02-11T06:56:52.249Z,315.67
2023-02-11T06:57:24.101Z,315.00
2023-02-11T06:57:55.868Z,314.33
2023-02-11T06:58:27.680Z,314.00
2023-02-11T06:58:59.706Z,314.00
2023-02-11T06:59:31.451Z,314.33
2023-02-11T07:00:04.949Z,314.00
2023-02-11T07:00:37.542Z,313.33
2023-02-11T07:01:11.021Z,312.33
2023-02-11T07:01:42.946Z,310.67
2023-02-11T07:02:14.852Z,309.33
2023-02-11T07:02:46.801Z,309.00
2023-02-11T07:03:18.773Z,308.67
2023-02-11T07:03:50.735Z,306.00
2023-02-11T07:04:22.956Z,305.67
2023-02-11T07:04:54.756Z,311.00
2023-02-11T07:05:26.658Z,339.67
2023-02-11T07:05:58.456Z,377.67
2023-02-11T07:06:30.302Z,369.33
2023-02-11T07:07:02.150Z,375.67
2023-02-11T07:07:34.350Z,367.67
2023-02-11T07:08:06.385Z,358.00
2023-02-11T07:08:38.598Z,355.33
2023-02-11T07:09:10.526Z,358.33
2023-02-11T07:09:42.392Z,346.67
2023-02-11T07:10:14.223Z,322.33
2023-02-11T07:10:46.117Z,320.00
2023-02-11T07:11:21.055Z,318.00
2023-02-11T07:11:52.815Z,308.00
2023-02-11T07:12:24.604Z,298.00
2023-02-11T07:12:58.720Z,289.67
2023-02-11T07:13:30.645Z,299.67
2023-02-11T07:14:04.379Z,374.33
2023-02-11T07:14:36.198Z,384.67
2023-02-11T07:15:08.424Z,370.00
2023-02-11T07:15:40.253Z,348.67
2023-02-11T07:16:15.980Z,336.33